CYGK

Kingston Norman Rogers Airport

Kingston, Ontario, Canada
METAR CYGK 120400Z 32003KT 5SM -SN FEW035 OVC075 M03/M03 A2998 RMK SC2AC6 LAST STFD OBS/NEXT 121100 UTC SLP158
Observed Flight Rules
Dec-12 @ 04:00 UTC (6 hours ago) Marginal Visual Flight Rules
Wind Visibility Clouds Conditions
320° at 3 knots 5 miles
  • Few at 3,500' AGL
  • Overcast at 7,500' AGL
  • Light Snow
Temperatures Readings
Current -3°C / 27°F
Dewpoint -3°C / 27°F
Humidity 100%
Altimeter 29.98" Hg
Pressure 1015.8 hPa
Elevation 93
METAR CYGK 120400Z 32003KT 5SM -SN FEW035 OVC075 M03/M03 A2998 RMK SC2AC6 LAST STFD OBS/NEXT 121100 UTC SLP158
Observed Flight Rules
Dec-12 @ 04:00 UTC
(6 hours ago)
MVFR
Wind Visibility
320° at 3 knots 5 miles
Clouds
  • Few at 3,500' AGL
  • Overcast at 7,500' AGL
Conditions
  • Light Snow
Temperature Dewpoint
-3°C / 27°F -3°C / 27°F
Humidity Altimeter Pressure
100% 29.98" Hg 1015.8 hPa